createdAt,value
2022-08-21T00:03:19.527Z,32.33
2022-08-21T00:08:23.053Z,37.60
2022-08-21T00:13:27.596Z,32.23
2022-08-21T00:18:30.842Z,37.80
2022-08-21T00:23:36.126Z,40.37
2022-08-21T00:28:40.656Z,44.97
2022-08-21T00:33:43.815Z,32.60
2022-08-21T00:38:47.214Z,35.67
2022-08-21T00:43:52.660Z,40.53
2022-08-21T00:48:57.173Z,47.83
2022-08-21T00:54:04.093Z,52.33
2022-08-21T00:59:09.220Z,55.80
2022-08-21T01:04:13.298Z,53.13
2022-08-21T01:09:16.938Z,44.37
2022-08-21T01:14:21.729Z,44.83
2022-08-21T01:19:25.481Z,51.07
2022-08-21T01:24:32.584Z,51.67
2022-08-21T01:29:40.303Z,37.40
2022-08-21T01:34:46.649Z,32.93
2022-08-21T01:39:51.237Z,27.10
2022-08-21T01:44:54.812Z,25.03
2022-08-21T01:49:59.412Z,14.13
2022-08-21T01:55:04.573Z,12.30
2022-08-21T02:00:12.181Z,11.30
2022-08-21T02:05:15.869Z,11.97
2022-08-21T02:10:23.824Z,11.03
2022-08-21T02:15:26.913Z,10.50
2022-08-21T02:20:32.479Z,11.97
2022-08-21T02:25:37.424Z,13.37
2022-08-21T02:30:46.063Z,11.33
2022-08-21T02:35:50.940Z,11.43
2022-08-21T02:40:58.998Z,13.40
2022-08-21T02:46:02.224Z,11.00
2022-08-21T02:51:08.470Z,11.57
2022-08-21T02:56:15.436Z,11.00
2022-08-21T03:01:18.527Z,12.97
2022-08-21T03:06:23.312Z,11.30
2022-08-21T03:11:27.889Z,10.93
2022-08-21T03:16:34.901Z,13.70
2022-08-21T03:21:38.454Z,12.00
2022-08-21T03:26:42.915Z,12.80
2022-08-21T03:31:46.299Z,12.70
2022-08-21T03:36:49.898Z,11.60
2022-08-21T03:41:55.157Z,10.70
2022-08-21T03:46:58.588Z,14.83
2022-08-21T03:52:01.957Z,14.50
2022-08-21T03:57:06.837Z,12.90
2022-08-21T04:02:09.903Z,12.10
2022-08-21T04:07:13.052Z,16.27
2022-08-21T04:12:17.514Z,17.20
2022-08-21T04:17:20.723Z,19.33
2022-08-21T04:22:23.827Z,19.07
2022-08-21T04:27:28.321Z,20.13
2022-08-21T04:32:31.798Z,18.87
2022-08-21T04:37:35.004Z,20.77
2022-08-21T04:42:51.505Z,18.03
2022-08-21T04:47:56.456Z,16.57
2022-08-21T04:53:00.515Z,24.80
2022-08-21T04:58:05.083Z,23.40
2022-08-21T05:03:11.861Z,25.77
2022-08-21T05:08:18.103Z,23.50
2022-08-21T05:13:23.349Z,22.10
2022-08-21T05:18:26.522Z,25.20
2022-08-21T05:23:29.606Z,20.33
2022-08-21T05:28:34.069Z,21.77
2022-08-21T05:33:37.108Z,25.37
2022-08-21T05:38:44.492Z,23.10
2022-08-21T05:43:49.700Z,20.43
2022-08-21T05:48:52.771Z,22.53
2022-08-21T05:53:55.897Z,23.67
2022-08-21T05:59:00.446Z,26.50
2022-08-21T06:04:03.984Z,31.50
2022-08-21T06:09:07.396Z,26.23
2022-08-21T06:14:12.482Z,25.53
2022-08-21T06:19:15.682Z,27.23
2022-08-21T06:24:18.735Z,27.60
2022-08-21T06:29:23.697Z,27.77
2022-08-21T06:34:26.763Z,28.17
2022-08-21T06:39:30.910Z,29.70
2022-08-21T06:44:37.223Z,28.40
2022-08-21T06:49:40.616Z,27.20
2022-08-21T06:54:44.036Z,27.83
2022-08-21T06:59:49.116Z,27.20
2022-08-21T07:04:52.781Z,26.90
2022-08-21T07:09:55.939Z,32.63
2022-08-21T07:15:00.594Z,40.73
2022-08-21T07:20:04.970Z,27.60
2022-08-21T07:25:08.902Z,30.93
2022-08-21T07:30:14.067Z,31.30
2022-08-21T07:35:17.478Z,25.00
2022-08-21T07:40:21.394Z,25.67
2022-08-21T07:45:26.930Z,28.03
2022-08-21T07:50:30.008Z,26.57
2022-08-21T07:55:33.394Z,27.03
2022-08-21T08:00:39.047Z,24.30
2022-08-21T08:05:42.645Z,20.97
2022-08-21T08:10:46.618Z,20.23
2022-08-21T08:15:51.567Z,26.03
2022-08-21T08:20:54.631Z,19.73
2022-08-21T08:25:57.965Z,20.37
2022-08-21T08:31:03.061Z,19.63
2022-08-21T08:36:07.936Z,22.90
2022-08-21T08:41:15.053Z,19.53
2022-08-21T08:46:28.283Z,16.47
2022-08-21T08:51:42.083Z,16.60
2022-08-21T08:56:46.116Z,17.17
2022-08-21T09:01:51.491Z,15.60
2022-08-21T09:07:07.361Z,15.80
2022-08-21T09:12:17.888Z,12.10
2022-08-21T09:17:38.548Z,12.90
2022-08-21T09:22:49.048Z,12.20
2022-08-21T09:27:52.699Z,9.33
2022-08-21T09:32:57.863Z,9.13
2022-08-21T09:38:03.978Z,5.60
2022-08-21T09:43:18.137Z,6.63
2022-08-21T09:48:26.263Z,9.80
2022-08-21T09:53:35.686Z,6.40
2022-08-21T09:58:42.525Z,8.27
2022-08-21T10:03:47.815Z,8.10
2022-08-21T10:08:50.952Z,5.90
2022-08-21T10:14:07.927Z,10.43
2022-08-21T10:19:24.560Z,5.67
2022-08-21T10:24:33.975Z,8.10
2022-08-21T10:29:54.045Z,8.33
2022-08-21T10:35:08.821Z,6.80
2022-08-21T10:40:22.093Z,8.33
2022-08-21T10:45:38.619Z,13.80
2022-08-21T10:50:50.893Z,4.93
2022-08-21T10:55:58.757Z,5.73
2022-08-21T11:01:09.901Z,7.23
2022-08-21T11:06:18.485Z,6.87
2022-08-21T11:11:29.458Z,6.00
2022-08-21T11:16:43.447Z,6.43
2022-08-21T11:21:54.608Z,6.10
2022-08-21T11:27:05.999Z,5.60
2022-08-21T11:32:29.931Z,5.57
2022-08-21T11:37:49.095Z,5.23
2022-08-21T11:42:59.816Z,7.30
2022-08-21T11:48:13.192Z,6.60
2022-08-21T11:53:24.519Z,5.90
2022-08-21T11:58:32.436Z,8.97
2022-08-21T12:03:37.507Z,6.70
2022-08-21T12:08:45.508Z,8.27
2022-08-21T12:13:57.960Z,6.10
2022-08-21T12:19:09.713Z,10.87
2022-08-21T12:24:23.119Z,4.93
2022-08-21T12:29:33.672Z,5.53
2022-08-21T12:34:40.996Z,6.07
2022-08-21T12:39:48.851Z,8.67
2022-08-21T12:44:56.219Z,5.10
2022-08-21T12:50:08.058Z,6.60
2022-08-21T12:55:16.823Z,5.40
2022-08-21T13:00:24.294Z,10.37
2022-08-21T13:05:33.045Z,5.70
2022-08-21T13:10:39.556Z,7.43
2022-08-21T13:15:47.422Z,5.00
2022-08-21T13:20:51.506Z,9.43
2022-08-21T13:25:57.846Z,6.93
2022-08-21T13:31:02.614Z,9.20
2022-08-21T13:36:11.301Z,6.57
2022-08-21T13:41:24.672Z,6.83
2022-08-21T13:46:33.070Z,4.60
2022-08-21T13:51:37.477Z,6.60
2022-08-21T13:56:47.305Z,6.73
2022-08-21T14:01:55.711Z,6.00
2022-08-21T14:06:59.228Z,6.93
2022-08-21T14:12:23.546Z,6.50
2022-08-21T14:17:34.527Z,6.80
2022-08-21T14:22:42.493Z,3.83
2022-08-21T14:27:53.204Z,6.23
2022-08-21T14:32:56.506Z,7.00
2022-08-21T14:37:59.597Z,5.40
2022-08-21T14:43:04.132Z,3.07
2022-08-21T14:48:07.322Z,4.73
2022-08-21T14:53:11.424Z,7.60
2022-08-21T14:58:16.381Z,4.30
2022-08-21T15:03:19.846Z,6.50
2022-08-21T15:08:22.985Z,7.77
2022-08-21T15:13:28.195Z,6.73
2022-08-21T15:18:32.719Z,5.30
2022-08-21T15:23:36.009Z,7.77
2022-08-21T15:28:44.589Z,4.93
2022-08-21T15:33:50.620Z,4.03
2022-08-21T15:38:53.821Z,7.90
2022-08-21T15:43:58.359Z,8.33
2022-08-21T15:49:01.591Z,7.60
2022-08-21T15:54:05.376Z,4.93
2022-08-21T15:59:14.464Z,6.47
2022-08-21T16:04:24.325Z,3.20
2022-08-21T16:09:27.498Z,5.00
2022-08-21T16:14:32.978Z,17.77
2022-08-21T16:19:38.128Z,10.70
2022-08-21T16:24:41.275Z,8.20
2022-08-21T16:29:47.554Z,3.80
2022-08-21T16:34:51.274Z,6.17
2022-08-21T16:39:54.493Z,3.50
2022-08-21T16:44:59.591Z,3.23
2022-08-21T16:50:02.929Z,6.93
2022-08-21T16:55:06.997Z,4.10
2022-08-21T17:00:13.753Z,6.97
2022-08-21T17:05:17.545Z,4.53
2022-08-21T17:10:21.668Z,3.67
2022-08-21T17:15:29.425Z,9.07
2022-08-21T17:20:33.223Z,5.70
2022-08-21T17:25:39.910Z,4.67
2022-08-21T17:30:46.256Z,4.43
2022-08-21T17:35:49.931Z,7.50
2022-08-21T17:40:53.389Z,7.37
2022-08-21T17:45:58.218Z,6.57
2022-08-21T17:51:01.820Z,10.13
2022-08-21T17:56:06.202Z,4.50
2022-08-21T18:01:12.593Z,6.60
2022-08-21T18:06:18.013Z,4.63
2022-08-21T18:11:25.318Z,3.80
2022-08-21T18:16:31.814Z,5.00
2022-08-21T18:21:35.163Z,5.87
2022-08-21T18:26:41.005Z,6.63
2022-08-21T18:31:47.201Z,9.27
2022-08-21T18:36:51.320Z,5.43
2022-08-21T18:41:56.056Z,4.07
2022-08-21T18:47:04.969Z,7.10
2022-08-21T18:52:08.284Z,7.17
2022-08-21T18:57:14.150Z,4.93
2022-08-21T19:02:19.346Z,8.93
2022-08-21T19:07:22.477Z,4.63
2022-08-21T19:12:29.642Z,5.23
2022-08-21T19:17:35.625Z,4.73
2022-08-21T19:22:39.121Z,5.47
2022-08-21T19:27:43.875Z,10.10
2022-08-21T19:32:49.865Z,8.13
2022-08-21T19:37:53.209Z,5.60
2022-08-21T19:42:56.898Z,5.00
2022-08-21T19:48:05.512Z,5.63
2022-08-21T19:58:37.035Z,6.30
2022-08-21T20:03:43.207Z,6.60
2022-08-21T20:08:48.298Z,5.80
2022-08-21T20:13:51.626Z,6.77
2022-08-21T20:18:57.328Z,8.13
2022-08-21T20:24:00.995Z,8.93
2022-08-21T20:29:05.506Z,4.87
2022-08-21T20:34:11.697Z,5.23
2022-08-21T20:39:19.080Z,5.00
2022-08-21T20:44:30.561Z,5.80
2022-08-21T20:49:39.689Z,10.63
2022-08-21T20:54:50.154Z,6.40
2022-08-21T20:59:58.046Z,6.63
2022-08-21T21:05:06.907Z,7.10
2022-08-21T21:10:19.508Z,6.03
2022-08-21T21:15:29.319Z,6.57
2022-08-21T21:20:37.979Z,6.27
2022-08-21T21:25:49.327Z,6.70
2022-08-21T21:30:57.795Z,4.50
2022-08-21T21:36:13.607Z,5.50
2022-08-21T21:41:25.504Z,5.50
2022-08-21T21:46:38.746Z,5.40
2022-08-21T21:52:00.437Z,9.90
2022-08-21T21:57:11.946Z,8.80
2022-08-21T22:02:29.224Z,4.80
2022-08-21T22:07:40.674Z,6.47
2022-08-21T22:12:53.811Z,7.40
2022-08-21T22:18:07.760Z,7.43
2022-08-21T22:23:19.077Z,7.00
2022-08-21T22:28:26.697Z,7.40
2022-08-21T22:33:36.427Z,9.37
2022-08-21T22:38:43.988Z,8.27
2022-08-21T22:43:56.649Z,6.00
2022-08-21T22:49:05.872Z,5.70
2022-08-21T22:54:16.663Z,4.90
2022-08-21T22:59:29.393Z,6.63
2022-08-21T23:04:33.775Z,7.20
2022-08-21T23:09:47.269Z,11.50
2022-08-21T23:20:26.745Z,9.20
2022-08-21T23:25:55.721Z,6.83
2022-08-21T23:31:19.749Z,8.10
2022-08-21T23:37:00.254Z,8.13
2022-08-21T23:42:16.134Z,6.70
2022-08-21T23:47:38.550Z,6.10
2022-08-21T23:52:55.975Z,5.73
2022-08-21T23:58:14.368Z,4.90
